sensor_id;sensor_type;location;lat;lon;timestamp;pressure;altitude;pressure_sealevel;temperature;humidity
18749;BME280;9503;53.560;10.246;2023-03-30T00:02:21;100143.31;;;15.29;88.94
18749;BME280;9503;53.560;10.246;2023-03-30T00:04:48;100136.03;;;15.11;88.70
18749;BME280;9503;53.560;10.246;2023-03-30T00:07:15;100132.63;;;15.12;89.17
18749;BME280;9503;53.560;10.246;2023-03-30T00:09:43;100146.50;;;15.17;89.39
18749;BME280;9503;53.560;10.246;2023-03-30T00:12:11;100138.00;;;15.21;88.54
18749;BME280;9503;53.560;10.246;2023-03-30T00:14:40;100128.41;;;15.15;88.88
18749;BME280;9503;53.560;10.246;2023-03-30T00:19:34;100137.63;;;15.04;89.44
18749;BME280;9503;53.560;10.246;2023-03-30T00:22:02;100127.84;;;15.30;88.61
18749;BME280;9503;53.560;10.246;2023-03-30T00:24:28;100129.56;;;15.31;88.53
18749;BME280;9503;53.560;10.246;2023-03-30T00:26:56;100135.66;;;15.35;88.19
18749;BME280;9503;53.560;10.246;2023-03-30T00:29:23;100125.22;;;15.29;88.13
18749;BME280;9503;53.560;10.246;2023-03-30T00:31:50;100112.97;;;15.18;89.60
18749;BME280;9503;53.560;10.246;2023-03-30T00:34:16;100105.22;;;15.20;89.35
18749;BME280;9503;53.560;10.246;2023-03-30T00:36:43;100099.13;;;15.15;89.91
18749;BME280;9503;53.560;10.246;2023-03-30T00:39:11;100098.38;;;14.77;91.14
18749;BME280;9503;53.560;10.246;2023-03-30T00:41:38;100094.59;;;15.03;90.78
18749;BME280;9503;53.560;10.246;2023-03-30T00:44:56;100096.72;;;15.24;90.39
18749;BME280;9503;53.560;10.246;2023-03-30T00:46:54;100097.44;;;15.17;91.23
18749;BME280;9503;53.560;10.246;2023-03-30T00:49:21;100091.56;;;15.24;91.06
18749;BME280;9503;53.560;10.246;2023-03-30T00:51:48;100082.22;;;15.31;90.18
18749;BME280;9503;53.560;10.246;2023-03-30T00:54:17;100070.03;;;15.24;90.52
18749;BME280;9503;53.560;10.246;2023-03-30T00:56:45;100068.34;;;15.27;90.91
18749;BME280;9503;53.560;10.246;2023-03-30T00:59:14;100068.41;;;15.29;90.56
18749;BME280;9503;53.560;10.246;2023-03-30T01:01:41;100045.19;;;15.30;90.47
18749;BME280;9503;53.560;10.246;2023-03-30T01:04:15;100040.91;;;15.34;90.80
18749;BME280;9503;53.560;10.246;2023-03-30T01:06:43;100038.38;;;15.35;90.59
18749;BME280;9503;53.560;10.246;2023-03-30T01:09:11;100019.47;;;15.38;90.47
18749;BME280;9503;53.560;10.246;2023-03-30T01:11:41;100017.94;;;15.49;89.74
18749;BME280;9503;53.560;10.246;2023-03-30T01:14:09;100017.41;;;15.67;89.28
18749;BME280;9503;53.560;10.246;2023-03-30T01:16:41;100011.72;;;15.38;89.72
18749;BME280;9503;53.560;10.246;2023-03-30T01:19:26;100005.59;;;15.33;90.12
18749;BME280;9503;53.560;10.246;2023-03-30T01:22:21;100000.81;;;15.56;88.96
18749;BME280;9503;53.560;10.246;2023-03-30T01:25:21;99986.53;;;15.76;88.41
18749;BME280;9503;53.560;10.246;2023-03-30T01:28:08;99986.97;;;15.51;89.01
18749;BME280;9503;53.560;10.246;2023-03-30T01:39:54;99969.91;;;15.60;88.23
18749;BME280;9503;53.560;10.246;2023-03-30T01:42:28;99973.84;;;15.38;89.68
18749;BME280;9503;53.560;10.246;2023-03-30T01:44:59;99963.19;;;15.70;89.31
18749;BME280;9503;53.560;10.246;2023-03-30T01:47:34;99966.94;;;15.90;87.72
18749;BME280;9503;53.560;10.246;2023-03-30T01:50:08;99970.31;;;15.33;89.27
18749;BME280;9503;53.560;10.246;2023-03-30T01:52:39;99967.72;;;15.33;89.57
18749;BME280;9503;53.560;10.246;2023-03-30T01:55:13;99961.34;;;15.63;89.32
18749;BME280;9503;53.560;10.246;2023-03-30T01:57:46;99964.84;;;15.65;88.73
18749;BME280;9503;53.560;10.246;2023-03-30T02:00:15;99959.97;;;15.33;90.07
18749;BME280;9503;53.560;10.246;2023-03-30T02:02:47;99958.50;;;15.49;90.57
18749;BME280;9503;53.560;10.246;2023-03-30T02:05:16;99934.00;;;15.23;91.53
18749;BME280;9503;53.560;10.246;2023-03-30T02:07:46;99913.66;;;15.42;89.60
18749;BME280;9503;53.560;10.246;2023-03-30T02:10:17;99923.03;;;15.36;90.36
18749;BME280;9503;53.560;10.246;2023-03-30T02:12:45;99922.72;;;15.17;91.79
18749;BME280;9503;53.560;10.246;2023-03-30T02:15:13;99907.34;;;15.25;91.31
18749;BME280;9503;53.560;10.246;2023-03-30T02:17:42;99906.47;;;15.23;91.89
18749;BME280;9503;53.560;10.246;2023-03-30T02:20:12;99908.72;;;15.05;92.08
18749;BME280;9503;53.560;10.246;2023-03-30T02:22:40;99900.56;;;15.33;92.09
18749;BME280;9503;53.560;10.246;2023-03-30T02:25:08;99892.41;;;15.06;91.70
18749;BME280;9503;53.560;10.246;2023-03-30T02:27:36;99888.16;;;15.11;93.58
18749;BME280;9503;53.560;10.246;2023-03-30T02:30:05;99884.91;;;15.21;92.59
18749;BME280;9503;53.560;10.246;2023-03-30T02:32:39;99889.25;;;15.24;93.28
18749;BME280;9503;53.560;10.246;2023-03-30T02:35:23;99868.38;;;15.10;93.46
18749;BME280;9503;53.560;10.246;2023-03-30T02:41:06;99872.78;;;15.17;93.69
18749;BME280;9503;53.560;10.246;2023-03-30T02:43:43;99873.94;;;14.83;95.55
18749;BME280;9503;53.560;10.246;2023-03-30T02:46:20;99871.47;;;14.89;95.24
18749;BME280;9503;53.560;10.246;2023-03-30T02:49:00;99868.88;;;14.89;94.63
18749;BME280;9503;53.560;10.246;2023-03-30T02:51:38;99863.91;;;15.00;95.24
18749;BME280;9503;53.560;10.246;2023-03-30T02:54:13;99851.81;;;14.97;95.45
18749;BME280;9503;53.560;10.246;2023-03-30T02:56:45;99838.88;;;14.96;95.20
18749;BME280;9503;53.560;10.246;2023-03-30T02:59:18;99836.47;;;15.06;95.13
18749;BME280;9503;53.560;10.246;2023-03-30T03:01:49;99837.19;;;14.98;95.19
18749;BME280;9503;53.560;10.246;2023-03-30T03:04:17;99825.88;;;14.89;96.18
18749;BME280;9503;53.560;10.246;2023-03-30T03:06:46;99811.41;;;14.99;95.41
18749;BME280;9503;53.560;10.246;2023-03-30T03:09:17;99809.81;;;15.07;95.32
18749;BME280;9503;53.560;10.246;2023-03-30T03:11:44;99809.94;;;15.16;94.95
18749;BME280;9503;53.560;10.246;2023-03-30T03:14:10;99809.97;;;15.18;94.87
18749;BME280;9503;53.560;10.246;2023-03-30T03:16:38;99796.81;;;15.03;95.50
18749;BME280;9503;53.560;10.246;2023-03-30T03:19:05;99812.19;;;14.95;95.34
18749;BME280;9503;53.560;10.246;2023-03-30T03:21:32;99808.66;;;14.90;95.22
18749;BME280;9503;53.560;10.246;2023-03-30T03:23:58;99799.66;;;15.19;95.07
18749;BME280;9503;53.560;10.246;2023-03-30T03:26:25;99779.09;;;15.27;93.77
18749;BME280;9503;53.560;10.246;2023-03-30T03:28:52;99778.94;;;15.15;93.86
18749;BME280;9503;53.560;10.246;2023-03-30T03:31:18;99778.81;;;15.06;94.63
18749;BME280;9503;53.560;10.246;2023-03-30T03:33:47;99772.50;;;14.85;94.65
18749;BME280;9503;53.560;10.246;2023-03-30T03:36:15;99763.91;;;14.86;93.83
18749;BME280;9503;53.560;10.246;2023-03-30T03:38:41;99763.03;;;14.86;94.61
18749;BME280;9503;53.560;10.246;2023-03-30T03:41:08;99755.19;;;14.81;94.56
18749;BME280;9503;53.560;10.246;2023-03-30T03:43:35;99753.25;;;14.65;94.95
18749;BME280;9503;53.560;10.246;2023-03-30T03:46:02;99750.81;;;14.76;94.21
18749;BME280;9503;53.560;10.246;2023-03-30T03:48:28;99753.38;;;14.74;94.03
18749;BME280;9503;53.560;10.246;2023-03-30T03:50:58;99752.72;;;14.86;93.81
18749;BME280;9503;53.560;10.246;2023-03-30T03:53:26;99746.09;;;14.49;96.10
18749;BME280;9503;53.560;10.246;2023-03-30T03:55:53;99752.28;;;14.58;96.45
18749;BME280;9503;53.560;10.246;2023-03-30T03:58:20;99734.56;;;14.81;94.42
18749;BME280;9503;53.560;10.246;2023-03-30T04:00:47;99732.94;;;14.86;93.88
18749;BME280;9503;53.560;10.246;2023-03-30T04:03:14;99728.34;;;14.69;95.42
18749;BME280;9503;53.560;10.246;2023-03-30T04:05:41;99736.81;;;14.61;95.55
18749;BME280;9503;53.560;10.246;2023-03-30T04:08:09;99730.66;;;14.50;96.08
18749;BME280;9503;53.560;10.246;2023-03-30T04:10:36;99731.94;;;14.77;96.15
18749;BME280;9503;53.560;10.246;2023-03-30T04:13:03;99725.06;;;14.79;94.42
18749;BME280;9503;53.560;10.246;2023-03-30T04:15:30;99719.91;;;14.79;95.39
18749;BME280;9503;53.560;10.246;2023-03-30T04:17:57;99714.69;;;14.76;94.81
18749;BME280;9503;53.560;10.246;2023-03-30T04:20:24;99716.19;;;14.61;94.83
18749;BME280;9503;53.560;10.246;2023-03-30T04:22:52;99706.91;;;14.71;96.10
18749;BME280;9503;53.560;10.246;2023-03-30T04:25:21;99712.84;;;14.67;94.38
18749;BME280;9503;53.560;10.246;2023-03-30T04:27:50;99709.63;;;14.83;95.48
18749;BME280;9503;53.560;10.246;2023-03-30T04:30:18;99706.72;;;14.60;95.77
18749;BME280;9503;53.560;10.246;2023-03-30T04:32:46;99700.72;;;14.61;95.26
18749;BME280;9503;53.560;10.246;2023-03-30T04:35:19;99698.13;;;14.60;96.01
18749;BME280;9503;53.560;10.246;2023-03-30T04:37:46;99690.88;;;14.95;94.66
18749;BME280;9503;53.560;10.246;2023-03-30T04:40:16;99682.91;;;14.78;94.75
18749;BME280;9503;53.560;10.246;2023-03-30T04:42:45;99689.09;;;14.35;96.45
18749;BME280;9503;53.560;10.246;2023-03-30T04:45:14;99688.34;;;14.41;96.60
18749;BME280;9503;53.560;10.246;2023-03-30T04:47:42;99676.16;;;14.86;95.04
18749;BME280;9503;53.560;10.246;2023-03-30T04:50:09;99659.03;;;14.95;94.23
18749;BME280;9503;53.560;10.246;2023-03-30T04:52:36;99662.66;;;15.06;92.47
18749;BME280;9503;53.560;10.246;2023-03-30T04:55:03;99660.78;;;14.96;91.80
18749;BME280;9503;53.560;10.246;2023-03-30T04:57:29;99659.94;;;14.97;92.48
18749;BME280;9503;53.560;10.246;2023-03-30T04:59:57;99654.47;;;14.74;93.79
18749;BME280;9503;53.560;10.246;2023-03-30T05:02:24;99645.28;;;14.36;95.73
18749;BME280;9503;53.560;10.246;2023-03-30T05:04:51;99657.22;;;14.31;96.40
18749;BME280;9503;53.560;10.246;2023-03-30T05:07:17;99653.28;;;14.52;96.30
18749;BME280;9503;53.560;10.246;2023-03-30T05:09:44;99657.00;;;14.69;95.20
18749;BME280;9503;53.560;10.246;2023-03-30T05:12:11;99654.81;;;14.41;96.77
18749;BME280;9503;53.560;10.246;2023-03-30T05:14:37;99644.81;;;14.60;95.01
18749;BME280;9503;53.560;10.246;2023-03-30T05:17:05;99635.41;;;14.64;95.41
18749;BME280;9503;53.560;10.246;2023-03-30T05:19:32;99641.00;;;14.37;96.26
18749;BME280;9503;53.560;10.246;2023-03-30T05:21:59;99639.03;;;14.21;97.27
18749;BME280;9503;53.560;10.246;2023-03-30T05:24:26;99630.03;;;14.49;96.98
18749;BME280;9503;53.560;10.246;2023-03-30T05:26:52;99625.28;;;14.76;95.17
18749;BME280;9503;53.560;10.246;2023-03-30T05:29:20;99632.28;;;14.88;94.38
18749;BME280;9503;53.560;10.246;2023-03-30T05:31:47;99632.66;;;14.52;95.55
18749;BME280;9503;53.560;10.246;2023-03-30T05:34:15;99639.03;;;14.77;95.08
18749;BME280;9503;53.560;10.246;2023-03-30T05:36:41;99631.97;;;14.65;94.59
18749;BME280;9503;53.560;10.246;2023-03-30T05:39:08;99625.47;;;14.93;93.10
18749;BME280;9503;53.560;10.246;2023-03-30T05:41:35;99618.63;;;14.98;92.97
18749;BME280;9503;53.560;10.246;2023-03-30T05:44:01;99601.38;;;14.91;93.36
18749;BME280;9503;53.560;10.246;2023-03-30T05:46:29;99611.22;;;15.27;92.27
18749;BME280;9503;53.560;10.246;2023-03-30T05:48:56;99612.38;;;15.52;90.41
18749;BME280;9503;53.560;10.246;2023-03-30T05:51:24;99618.19;;;15.30;90.73
18749;BME280;9503;53.560;10.246;2023-03-30T05:53:50;99628.28;;;15.13;91.98
18749;BME280;9503;53.560;10.246;2023-03-30T05:56:17;99628.31;;;15.14;91.61
18749;BME280;9503;53.560;10.246;2023-03-30T05:58:44;99647.38;;;15.27;91.09
18749;BME280;9503;53.560;10.246;2023-03-30T06:01:11;99652.50;;;15.21;91.11
18749;BME280;9503;53.560;10.246;2023-03-30T06:03:38;99658.56;;;15.25;91.87
18749;BME280;9503;53.560;10.246;2023-03-30T06:06:07;99661.13;;;15.23;92.00
18749;BME280;9503;53.560;10.246;2023-03-30T06:08:35;99656.91;;;15.28;92.41
18749;BME280;9503;53.560;10.246;2023-03-30T06:11:01;99657.59;;;15.15;93.26
18749;BME280;9503;53.560;10.246;2023-03-30T06:13:28;99650.06;;;15.35;93.73
18749;BME280;9503;53.560;10.246;2023-03-30T06:15:56;99643.16;;;15.34;92.82
18749;BME280;9503;53.560;10.246;2023-03-30T06:18:22;99637.91;;;15.26;94.14
18749;BME280;9503;53.560;10.246;2023-03-30T06:20:49;99636.25;;;15.30;93.38
18749;BME280;9503;53.560;10.246;2023-03-30T06:23:16;99641.41;;;15.28;94.30
18749;BME280;9503;53.560;10.246;2023-03-30T06:25:45;99630.00;;;15.11;95.05
18749;BME280;9503;53.560;10.246;2023-03-30T06:28:16;99626.44;;;15.79;92.89
18749;BME280;9503;53.560;10.246;2023-03-30T06:30:43;99612.56;;;15.69;92.36
18749;BME280;9503;53.560;10.246;2023-03-30T06:33:13;99611.03;;;15.89;92.38
18749;BME280;9503;53.560;10.246;2023-03-30T06:35:43;99609.38;;;15.97;91.97
18749;BME280;9503;53.560;10.246;2023-03-30T06:38:10;99616.31;;;16.01;92.19
18749;BME280;9503;53.560;10.246;2023-03-30T06:40:37;99619.66;;;15.90;92.38
18749;BME280;9503;53.560;10.246;2023-03-30T06:43:05;99615.16;;;15.70;92.78
18749;BME280;9503;53.560;10.246;2023-03-30T06:45:32;99620.53;;;15.93;93.91
18749;BME280;9503;53.560;10.246;2023-03-30T06:47:58;99608.78;;;16.34;93.96
18749;BME280;9503;53.560;10.246;2023-03-30T06:50:25;99608.03;;;16.51;93.05
18749;BME280;9503;53.560;10.246;2023-03-30T06:52:52;99605.47;;;16.54;93.04
18749;BME280;9503;53.560;10.246;2023-03-30T06:55:18;99610.84;;;16.83;92.82
18749;BME280;9503;53.560;10.246;2023-03-30T06:57:45;99613.56;;;17.14;91.88
18749;BME280;9503;53.560;10.246;2023-03-30T07:00:14;99611.84;;;17.25;90.33
18749;BME280;9503;53.560;10.246;2023-03-30T07:02:41;99618.84;;;17.57;89.74
18749;BME280;9503;53.560;10.246;2023-03-30T07:05:09;99616.28;;;17.64;88.77
18749;BME280;9503;53.560;10.246;2023-03-30T07:07:37;99604.22;;;18.11;88.80
18749;BME280;9503;53.560;10.246;2023-03-30T07:10:04;99599.03;;;18.09;87.69
18749;BME280;9503;53.560;10.246;2023-03-30T07:12:34;99607.56;;;18.83;84.88
18749;BME280;9503;53.560;10.246;2023-03-30T07:15:01;99607.59;;;18.65;85.34
18749;BME280;9503;53.560;10.246;2023-03-30T07:17:29;99610.78;;;19.37;81.99
18749;BME280;9503;53.560;10.246;2023-03-30T07:19:55;99603.28;;;18.61;84.42
18749;BME280;9503;53.560;10.246;2023-03-30T07:22:22;99609.41;;;18.05;84.55
18749;BME280;9503;53.560;10.246;2023-03-30T07:24:49;99593.84;;;18.25;84.98
18749;BME280;9503;53.560;10.246;2023-03-30T07:27:15;99595.56;;;18.36;85.19
18749;BME280;9503;53.560;10.246;2023-03-30T07:29:42;99598.06;;;18.77;84.40
18749;BME280;9503;53.560;10.246;2023-03-30T07:32:08;99597.91;;;16.82;88.41
18749;BME280;9503;53.560;10.246;2023-03-30T07:34:36;99596.38;;;17.42;90.10
18749;BME280;9503;53.560;10.246;2023-03-30T07:37:03;99603.97;;;16.96;90.33
18749;BME280;9503;53.560;10.246;2023-03-30T07:39:30;99599.84;;;17.50;88.02
18749;BME280;9503;53.560;10.246;2023-03-30T07:41:57;99600.63;;;17.32;86.24
18749;BME280;9503;53.560;10.246;2023-03-30T07:44:23;99602.50;;;18.11;84.13
18749;BME280;9503;53.560;10.246;2023-03-30T07:46:53;99598.97;;;17.44;85.74
18749;BME280;9503;53.560;10.246;2023-03-30T07:49:20;99600.66;;;17.48;85.60
18749;BME280;9503;53.560;10.246;2023-03-30T07:51:48;99600.69;;;17.43;87.51
18749;BME280;9503;53.560;10.246;2023-03-30T07:54:15;99603.31;;;17.63;84.88
18749;BME280;9503;53.560;10.246;2023-03-30T07:56:41;99599.88;;;17.76;82.38
18749;BME280;9503;53.560;10.246;2023-03-30T07:59:10;99607.41;;;16.92;87.76
18749;BME280;9503;53.560;10.246;2023-03-30T08:01:37;99615.97;;;16.80;86.13
18749;BME280;9503;53.560;10.246;2023-03-30T08:04:04;99613.09;;;16.38;89.70
18749;BME280;9503;53.560;10.246;2023-03-30T08:06:31;99621.25;;;17.02;88.97
18749;BME280;9503;53.560;10.246;2023-03-30T08:08:59;99617.81;;;16.98;89.76
18749;BME280;9503;53.560;10.246;2023-03-30T08:11:26;99615.28;;;17.18;91.24
18749;BME280;9503;53.560;10.246;2023-03-30T08:13:53;99609.91;;;16.74;91.06
18749;BME280;9503;53.560;10.246;2023-03-30T08:16:20;99610.69;;;16.67;93.76
18749;BME280;9503;53.560;10.246;2023-03-30T08:18:46;99617.75;;;16.84;94.88
18749;BME280;9503;53.560;10.246;2023-03-30T08:21:13;99606.56;;;16.92;93.58
18749;BME280;9503;53.560;10.246;2023-03-30T08:23:39;99609.00;;;16.69;92.08
18749;BME280;9503;53.560;10.246;2023-03-30T08:26:07;99608.47;;;17.43;91.36
18749;BME280;9503;53.560;10.246;2023-03-30T08:28:34;99609.38;;;17.63;88.29
18749;BME280;9503;53.560;10.246;2023-03-30T08:31:04;99600.75;;;18.16;88.90
18749;BME280;9503;53.560;10.246;2023-03-30T08:33:31;99610.13;;;18.95;83.16
18749;BME280;9503;53.560;10.246;2023-03-30T08:35:59;99604.97;;;17.38;90.33
18749;BME280;9503;53.560;10.246;2023-03-30T08:38:25;99610.97;;;17.16;92.76
18749;BME280;9503;53.560;10.246;2023-03-30T08:40:52;99608.38;;;17.17;93.38
18749;BME280;9503;53.560;10.246;2023-03-30T08:43:35;99599.75;;;17.24;92.46
18749;BME280;9503;53.560;10.246;2023-03-30T08:46:04;99605.03;;;17.64;90.59
18749;BME280;9503;53.560;10.246;2023-03-30T08:48:32;99599.88;;;18.31;89.11
18749;BME280;9503;53.560;10.246;2023-03-30T08:51:07;99602.50;;;18.07;88.32
18749;BME280;9503;53.560;10.246;2023-03-30T08:53:38;99608.56;;;17.78;90.94
18749;BME280;9503;53.560;10.246;2023-03-30T08:56:08;99594.50;;;16.97;93.49
18749;BME280;9503;53.560;10.246;2023-03-30T08:58:44;99586.94;;;17.81;95.16
18749;BME280;9503;53.560;10.246;2023-03-30T09:01:19;99582.63;;;18.01;94.27
18749;BME280;9503;53.560;10.246;2023-03-30T09:03:59;99592.94;;;18.33;93.82
18749;BME280;9503;53.560;10.246;2023-03-30T09:06:38;99595.47;;;18.82;90.29
18749;BME280;9503;53.560;10.246;2023-03-30T09:09:10;99590.34;;;17.61;94.13
18749;BME280;9503;53.560;10.246;2023-03-30T09:11:38;99583.47;;;17.74;92.21
18749;BME280;9503;53.560;10.246;2023-03-30T09:14:13;99582.59;;;18.13;92.29
18749;BME280;9503;53.560;10.246;2023-03-30T09:16:45;99579.91;;;18.64;88.43
18749;BME280;9503;53.560;10.246;2023-03-30T09:19:21;99571.25;;;18.72;88.48
18749;BME280;9503;53.560;10.246;2023-03-30T09:21:52;99578.47;;;19.79;87.50
18749;BME280;9503;53.560;10.246;2023-03-30T09:24:24;99575.63;;;18.35;86.80
18749;BME280;9503;53.560;10.246;2023-03-30T09:26:54;99581.53;;;18.98;88.79
18749;BME280;9503;53.560;10.246;2023-03-30T09:29:27;99585.00;;;18.94;86.89
18749;BME280;9503;53.560;10.246;2023-03-30T09:32:01;99570.41;;;18.57;87.83
18749;BME280;9503;53.560;10.246;2023-03-30T09:34:34;99578.66;;;19.46;83.91
18749;BME280;9503;53.560;10.246;2023-03-30T09:37:08;99589.78;;;19.72;83.36
18749;BME280;9503;53.560;10.246;2023-03-30T09:39:36;99582.38;;;19.10;82.92
18749;BME280;9503;53.560;10.246;2023-03-30T09:42:16;99573.00;;;18.67;83.06
18749;BME280;9503;53.560;10.246;2023-03-30T09:44:47;99577.28;;;18.65;82.29
18749;BME280;9503;53.560;10.246;2023-03-30T09:47:21;99586.41;;;19.53;81.56
18749;BME280;9503;53.560;10.246;2023-03-30T09:49:54;99580.84;;;18.34;86.31
18749;BME280;9503;53.560;10.246;2023-03-30T09:52:23;99586.00;;;18.66;83.45
18749;BME280;9503;53.560;10.246;2023-03-30T09:54:50;99583.19;;;19.13;83.46
18749;BME280;9503;53.560;10.246;2023-03-30T09:57:26;99589.47;;;18.40;84.19
18749;BME280;9503;53.560;10.246;2023-03-30T09:59:54;99578.16;;;18.76;83.26
18749;BME280;9503;53.560;10.246;2023-03-30T10:02:23;99580.34;;;19.56;81.49
18749;BME280;9503;53.560;10.246;2023-03-30T10:04:58;99582.78;;;19.80;77.92
18749;BME280;9503;53.560;10.246;2023-03-30T10:07:29;99573.25;;;19.81;77.92
18749;BME280;9503;53.560;10.246;2023-03-30T10:09:58;99571.69;;;19.54;77.46
18749;BME280;9503;53.560;10.246;2023-03-30T10:12:27;99570.28;;;18.98;79.85
18749;BME280;9503;53.560;10.246;2023-03-30T10:14:57;99571.31;;;18.28;81.48
18749;BME280;9503;53.560;10.246;2023-03-30T10:17:26;99565.00;;;19.13;78.04
18749;BME280;9503;53.560;10.246;2023-03-30T10:20:14;99569.56;;;18.67;79.74
18749;BME280;9503;53.560;10.246;2023-03-30T10:22:48;99559.25;;;18.10;81.75
18749;BME280;9503;53.560;10.246;2023-03-30T10:25:19;99566.03;;;18.82;79.38
18749;BME280;9503;53.560;10.246;2023-03-30T10:27:48;99572.94;;;18.86;79.00
18749;BME280;9503;53.560;10.246;2023-03-30T10:30:22;99577.47;;;19.94;75.95
18749;BME280;9503;53.560;10.246;2023-03-30T10:32:51;99577.66;;;19.76;77.12
18749;BME280;9503;53.560;10.246;2023-03-30T10:35:21;99566.34;;;20.67;73.79
18749;BME280;9503;53.560;10.246;2023-03-30T10:37:51;99563.69;;;19.81;75.47
18749;BME280;9503;53.560;10.246;2023-03-30T10:40:21;99553.78;;;20.25;75.67
18749;BME280;9503;53.560;10.246;2023-03-30T10:42:50;99553.34;;;19.77;76.16
18749;BME280;9503;53.560;10.246;2023-03-30T10:45:26;99556.78;;;19.80;77.11
18749;BME280;9503;53.560;10.246;2023-03-30T10:48:03;99541.66;;;20.97;72.98
18749;BME280;9503;53.560;10.246;2023-03-30T10:50:38;99545.38;;;20.80;73.75
18749;BME280;9503;53.560;10.246;2023-03-30T10:53:21;99548.97;;;20.69;71.65
18749;BME280;9503;53.560;10.246;2023-03-30T10:55:56;99552.00;;;21.04;71.36
18749;BME280;9503;53.560;10.246;2023-03-30T10:58:35;99541.69;;;20.21;71.86
18749;BME280;9503;53.560;10.246;2023-03-30T11:01:11;99540.50;;;20.52;70.82
18749;BME280;9503;53.560;10.246;2023-03-30T11:03:43;99540.97;;;20.83;70.14
18749;BME280;9503;53.560;10.246;2023-03-30T11:06:16;99533.59;;;21.16;70.08
18749;BME280;9503;53.560;10.246;2023-03-30T11:08:47;99537.53;;;21.46;66.61
18749;BME280;9503;53.560;10.246;2023-03-30T11:11:19;99531.13;;;20.31;68.52
18749;BME280;9503;53.560;10.246;2023-03-30T11:13:49;99535.69;;;22.05;65.20
18749;BME280;9503;53.560;10.246;2023-03-30T11:16:22;99539.91;;;21.01;66.01
18749;BME280;9503;53.560;10.246;2023-03-30T11:18:54;99547.34;;;19.66;69.09
18749;BME280;9503;53.560;10.246;2023-03-30T11:21:27;99553.16;;;19.97;67.52
18749;BME280;9503;53.560;10.246;2023-03-30T11:23:57;99543.69;;;19.90;66.11
18749;BME280;9503;53.560;10.246;2023-03-30T11:26:32;99562.38;;;19.16;70.11
18749;BME280;9503;53.560;10.246;2023-03-30T11:29:05;99554.50;;;19.31;68.49
18749;BME280;9503;53.560;10.246;2023-03-30T11:31:47;99555.81;;;19.94;66.34
18749;BME280;9503;53.560;10.246;2023-03-30T11:34:25;99549.28;;;19.36;67.06
18749;BME280;9503;53.560;10.246;2023-03-30T11:36:59;99549.19;;;20.51;65.06
18749;BME280;9503;53.560;10.246;2023-03-30T11:39:29;99553.38;;;19.72;66.14
18749;BME280;9503;53.560;10.246;2023-03-30T11:42:03;99547.75;;;20.21;65.80
18749;BME280;9503;53.560;10.246;2023-03-30T11:44:33;99553.19;;;20.80;64.70
18749;BME280;9503;53.560;10.246;2023-03-30T11:47:09;99552.00;;;20.30;66.10
18749;BME280;9503;53.560;10.246;2023-03-30T11:49:52;99545.78;;;20.41;65.83
18749;BME280;9503;53.560;10.246;2023-03-30T11:52:28;99548.56;;;21.00;63.02
18749;BME280;9503;53.560;10.246;2023-03-30T11:55:18;99533.59;;;20.50;63.32
18749;BME280;9503;53.560;10.246;2023-03-30T11:57:54;99536.69;;;20.81;62.71
18749;BME280;9503;53.560;10.246;2023-03-30T12:00:30;99538.41;;;19.97;65.08
18749;BME280;9503;53.560;10.246;2023-03-30T12:03:14;99534.75;;;21.57;61.91
18749;BME280;9503;53.560;10.246;2023-03-30T12:05:44;99543.69;;;21.40;60.99
18749;BME280;9503;53.560;10.246;2023-03-30T12:08:23;99544.97;;;21.10;61.83
18749;BME280;9503;53.560;10.246;2023-03-30T12:11:01;99535.84;;;20.77;60.65
18749;BME280;9503;53.560;10.246;2023-03-30T12:13:31;99538.88;;;21.11;60.91
18749;BME280;9503;53.560;10.246;2023-03-30T12:16:01;99544.53;;;20.79;60.45
18749;BME280;9503;53.560;10.246;2023-03-30T12:18:38;99549.66;;;20.01;62.09
18749;BME280;9503;53.560;10.246;2023-03-30T12:21:20;99548.19;;;21.31;60.15
18749;BME280;9503;53.560;10.246;2023-03-30T12:23:55;99541.63;;;21.02;59.71
18749;BME280;9503;53.560;10.246;2023-03-30T12:26:26;99548.84;;;20.80;61.19
18749;BME280;9503;53.560;10.246;2023-03-30T12:28:56;99547.25;;;19.79;64.12
18749;BME280;9503;53.560;10.246;2023-03-30T12:31:46;99553.50;;;19.54;70.35
18749;BME280;9503;53.560;10.246;2023-03-30T12:34:15;99578.94;;;18.97;73.49
18749;BME280;9503;53.560;10.246;2023-03-30T12:36:46;99598.78;;;19.15;75.17
18749;BME280;9503;53.560;10.246;2023-03-30T12:39:17;99592.13;;;17.96;83.58
18749;BME280;9503;53.560;10.246;2023-03-30T12:41:55;99608.56;;;17.95;86.63
18749;BME280;9503;53.560;10.246;2023-03-30T12:44:34;99621.38;;;17.32;92.30
18749;BME280;9503;53.560;10.246;2023-03-30T12:47:24;99628.34;;;17.50;91.91
18749;BME280;9503;53.560;10.246;2023-03-30T12:50:03;99621.50;;;17.71;90.13
18749;BME280;9503;53.560;10.246;2023-03-30T12:52:43;99618.91;;;18.24;87.89
18749;BME280;9503;53.560;10.246;2023-03-30T12:55:25;99618.84;;;17.54;87.84
18749;BME280;9503;53.560;10.246;2023-03-30T12:58:07;99624.81;;;17.33;86.54
18749;BME280;9503;53.560;10.246;2023-03-30T13:01:04;99619.78;;;17.80;87.11
18749;BME280;9503;53.560;10.246;2023-03-30T13:03:39;99621.44;;;18.77;83.81
18749;BME280;9503;53.560;10.246;2023-03-30T13:06:15;99622.38;;;17.82;85.29
18749;BME280;9503;53.560;10.246;2023-03-30T13:08:44;99624.09;;;17.77;83.94
18749;BME280;9503;53.560;10.246;2023-03-30T13:11:13;99622.38;;;18.17;82.69
18749;BME280;9503;53.560;10.246;2023-03-30T13:13:50;99623.81;;;19.29;79.13
18749;BME280;9503;53.560;10.246;2023-03-30T13:16:46;99637.06;;;18.04;80.79
18749;BME280;9503;53.560;10.246;2023-03-30T13:19:20;99620.53;;;18.92;78.61
18749;BME280;9503;53.560;10.246;2023-03-30T13:21:55;99623.16;;;18.83;77.67
18749;BME280;9503;53.560;10.246;2023-03-30T13:24:35;99626.28;;;19.58;75.58
18749;BME280;9503;53.560;10.246;2023-03-30T13:27:22;99613.56;;;19.03;75.91
18749;BME280;9503;53.560;10.246;2023-03-30T13:29:52;99614.56;;;18.47;77.50
18749;BME280;9503;53.560;10.246;2023-03-30T13:32:26;99621.38;;;18.96;75.15
18749;BME280;9503;53.560;10.246;2023-03-30T13:35:30;99618.06;;;18.11;77.20